aviador You're here:

LBWN Decoded Metar

VARNA in BULGARIA
Report Time2018-02-20 13:30:00
UTC Time2018-02-20 13:54:33
Flight Rules mvfr MVFR
Wind070° at 16 kt
W.Decomp.*RWY 09: 14.6 kt HW 6.5 kt LCW
W.Rank070° ranks 27
Current wind is above 070° avg. (6.9)
Visibility9999 m
Phenomena:N/A
Clouds:Scattered 014 Hf
Broken 023 Hf
Overcast 030 Hf
Expected CloudBase > 1,200 ft AGL from Temp-Dew spread
Ceiling2,300 ft
Temp06°C (ISA -9)
Dew Point03°C (81% RH)
AAT-1.3°C
QNH1017 hPa
Density Alt-942 ft
Elevation141 ft
Report Wrong Elevation
Raw Report
LBWN 201330Z 07016KT 9999 SCT014 BKN023 OVC030 06/03 Q1017
R99/29//95 NOSIG=

Extra information for LBWN:More info

Metar Taf Metar & Taf Last 4 Metars F.Rules Stats Wind Profile Meteogram Temp Stats Airport Information Weather charts Add Link Nearby VenuesMetar ALERT Operation Metar Decoded Social comments